Time;durP1;ratioP1;P1;durP2;ratioP2;P2;SDS_P1;SDS_P2;PMS_P1;PMS_P2;Temp;Humidity;BMP_temperature;BMP_pressure;BME280_temperature;BME280_humidity;BME280_pressure;Samples;Min_cycle;Max_cycle;Signal;HPM_P1;HPM_P2
2022/03/19 01:07:50;;;;;;;;;;;;;;;;;;5130608;27;19922;-76
2022/03/19 01:10:17;;;;;;;;;;;7.60;7.50;;;;;;5129942;28;19912;-76
2022/03/19 01:12:43;;;;;;;;;;;;;;;;;;5130803;28;19912;-76
2022/03/19 01:15:09;;;;;;;;;;;7.70;8.80;;;;;;5118751;28;19916;-76
2022/03/19 01:17:35;;;;;;;;;;;7.60;9.70;;;;;;5110033;28;19970;-76
2022/03/19 01:20:02;;;;;;;;;;;7.40;17.40;;;;;;5092219;28;20353;-76
2022/03/19 01:22:28;;;;;;;;;;;7.50;9.60;;;;;;5089711;28;19915;-76
2022/03/19 01:24:54;;;;;;;;;;;7.50;9.90;;;;;;5071461;28;19962;-77
2022/03/19 01:27:20;;;;;;;;;;;7.50;9.50;;;;;;5088723;28;19915;-76
2022/03/19 01:29:46;;;;;;;;;;;7.50;9.50;;;;;;5089518;28;19913;-76
2022/03/19 01:32:12;;;;;;;;;;;7.50;8.70;;;;;;5088645;28;19908;-76
2022/03/19 01:34:37;;;;;;;;;;;7.30;10.10;;;;;;5101491;28;19915;-76
2022/03/19 01:37:03;;;;;;;;;;;7.20;11.60;;;;;;5129704;28;19916;-75
2022/03/19 01:39:29;;;;;;;;;;;7.30;11.50;;;;;;5130037;28;19919;-76
2022/03/19 01:41:54;;;;;;;;;;;7.40;11.70;;;;;;5130138;28;20014;-76
2022/03/19 01:44:20;;;;;;;;;;;7.60;10.60;;;;;;5129332;28;19907;-75
2022/03/19 01:46:59;;;;;;;;;;;7.40;10.20;;;;;;5130008;28;19998;-75
2022/03/19 01:49:25;;;;;;;;;;;7.30;11.10;;;;;;5129734;28;19953;-75
2022/03/19 01:51:52;;;;;;;;;;;7.30;11.40;;;;;;5129928;28;19941;-75
2022/03/19 01:54:22;;;;;;;;;;;7.30;12.30;;;;;;5129361;28;19907;-76
2022/03/19 01:56:48;;;;;;;;;;;7.30;12.70;;;;;;5129825;28;19912;-76
2022/03/19 01:59:14;;;;;;;;;;;7.40;12.60;;;;;;5129007;28;19908;-75
2022/03/19 02:01:39;;;;;;;;;;;7.30;13.30;;;;;;5129734;28;20401;-76
2022/03/19 02:04:06;;;;;;;;;;;7.30;13.80;;;;;;5128826;28;19987;-75
2022/03/19 02:06:31;;;;;;;;;;;7.30;14.50;;;;;;5129494;28;20443;-76
2022/03/19 02:08:57;;;;;;;;;;;7.20;14.00;;;;;;5129452;28;19970;-76
2022/03/19 02:11:24;;;;;;;;;;;7.20;14.40;;;;;;5128746;28;20367;-75
2022/03/19 02:13:49;;;;;;;;;;;;;;;;;;5129590;28;20045;-75
2022/03/19 02:16:15;;;;;;;;;;;7.20;15.00;;;;;;5128470;28;20388;-75
2022/03/19 02:18:40;;;;;;;;;;;7.20;15.70;;;;;;5097045;28;19908;-76
2022/03/19 02:21:07;;;;;;;;;;;7.10;15.90;;;;;;5114913;28;19912;-75
2022/03/19 02:26:16;;;;;;;;;;;7.10;15.90;;;;;;5114793;28;19919;-75
2022/03/19 02:28:42;;;;;;;;;;;7.10;16.10;;;;;;5115553;28;19908;-75
2022/03/19 02:31:07;;;;;;;;;;;7.10;16.10;;;;;;5114665;28;20372;-75
2022/03/19 02:33:33;;;;;;;;;;;7.10;16.20;;;;;;5115678;28;19908;-76
2022/03/19 02:35:59;;;;;;;;;;;;;;;;;;5115180;28;19941;-76
2022/03/19 02:38:24;;;;;;;;;;;7.10;16.10;;;;;;5114373;28;19984;-76
2022/03/19 02:40:50;;;;;;;;;;;7.10;16.10;;;;;;5115229;28;19908;-76
2022/03/19 02:43:15;;;;;;;;;;;7.10;16.20;;;;;;5114273;28;20053;-75
2022/03/19 02:45:45;;;;;;;;;;;7.10;15.90;;;;;;5115209;28;19908;-75
2022/03/19 02:48:11;;;;;;;;;;;;;;;;;;5114402;28;19915;-75
2022/03/19 02:50:37;;;;;;;;;;;7.10;16.60;;;;;;5115120;28;19912;-75
2022/03/19 02:53:03;;;;;;;;;;;;;;;;;;5114714;28;19914;-74
2022/03/19 02:55:32;;;;;;;;;;;6.90;16.40;;;;;;5114608;28;20002;-75
2022/03/19 02:57:58;;;;;;;;;;;7.00;17.60;;;;;;5114965;28;19915;-75
2022/03/19 03:00:23;;;;;;;;;;;6.90;18.60;;;;;;5114119;28;19904;-75
2022/03/19 03:02:49;;;;;;;;;;;;;;;;;;5114886;28;19908;-75
2022/03/19 03:05:15;;;;;;;;;;;6.90;18.90;;;;;;5113851;28;19916;-75
2022/03/19 03:07:41;;;;;;;;;;;6.90;18.40;;;;;;5114830;28;19912;-76
2022/03/19 03:10:07;;;;;;;;;;;;;;;;;;5113752;28;19919;-75
2022/03/19 03:12:32;;;;;;;;;;;6.90;18.90;;;;;;5114645;28;19972;-75
2022/03/19 03:14:58;;;;;;;;;;;6.90;18.20;;;;;;5114535;28;20011;-76
2022/03/19 03:17:23;;;;;;;;;;;6.80;18.50;;;;;;5113785;28;19907;-75
2022/03/19 03:19:51;;;;;;;;;;;;;;;;;;5114593;28;20006;-75
2022/03/19 03:22:17;;;;;;;;;;;;;;;;;;5113684;28;19919;-75
2022/03/19 03:24:42;;;;;;;;;;;6.80;23.40;;;;;;5114448;28;19908;-76
2022/03/19 03:27:08;;;;;;;;;;;6.80;19.40;;;;;;5113609;28;20368;-75
2022/03/19 03:29:33;;;;;;;;;;;6.70;19.80;;;;;;5113391;28;19934;-76
2022/03/19 03:31:59;;;;;;;;;;;6.70;19.50;;;;;;5114366;28;19943;-75
2022/03/19 03:34:24;;;;;;;;;;;6.70;20.70;;;;;;5113464;28;19908;-76
2022/03/19 03:36:50;;;;;;;;;;;;;;;;;;5114548;28;19916;-76
2022/03/19 03:39:16;;;;;;;;;;;6.70;19.10;;;;;;5113225;28;19964;-76
2022/03/19 03:41:41;;;;;;;;;;;6.70;19.10;;;;;;5114119;28;19978;-75
2022/03/19 03:44:07;;;;;;;;;;;;;;;;;;5113539;28;19914;-74
2022/03/19 03:46:33;;;;;;;;;;;6.70;18.20;;;;;;5113930;28;19908;-76
2022/03/19 03:48:58;;;;;;;;;;;6.70;17.00;;;;;;5114007;28;19908;-76
2022/03/19 03:51:24;;;;;;;;;;;6.70;17.40;;;;;;5113165;28;20045;-75
2022/03/19 03:53:50;;;;;;;;;;;6.70;16.70;;;;;;5095594;28;19908;-75
2022/03/19 03:56:15;;;;;;;;;;;6.70;16.60;;;;;;5113000;28;19979;-75
2022/03/19 03:58:42;;;;;;;;;;;6.70;16.80;;;;;;5113739;28;19914;-76
2022/03/19 04:01:08;;;;;;;;;;;;;;;;;;5113308;28;19908;-74
2022/03/19 04:03:33;;;;;;;;;;;6.70;16.70;;;;;;5113502;28;19953;-76
2022/03/19 04:05:59;;;;;;;;;;;6.60;16.50;;;;;;5113424;28;19920;-76
2022/03/19 04:08:24;;;;;;;;;;;6.70;16.30;;;;;;5112692;28;19994;-76
2022/03/19 04:10:50;;;;;;;;;;;6.70;15.30;;;;;;5113555;28;20016;-75
2022/03/19 04:13:15;;;;;;;;;;;6.50;17.10;;;;;;5112762;28;20272;-75
2022/03/19 04:15:41;;;;;;;;;;;6.50;16.50;;;;;;5113383;28;19919;-75
2022/03/19 04:18:06;;;;;;;;;;;;;;;;;;5113418;28;19918;-74
2022/03/19 04:20:32;;;;;;;;;;;6.50;16.90;;;;;;5094606;28;19908;-75
2022/03/19 04:22:58;;;;;;;;;;;6.60;17.00;;;;;;5113339;28;20261;-75
2022/03/19 04:25:24;;;;;;;;;;;6.50;16.60;;;;;;5112495;28;19990;-75
2022/03/19 04:27:50;;;;;;;;;;;;;;;;;;5113219;28;19915;-76
2022/03/19 04:30:16;;;;;;;;;;;6.50;16.30;;;;;;5112412;28;19908;-75
2022/03/19 04:32:43;;;;;;;;;;;6.50;16.20;;;;;;5113388;28;19956;-75
2022/03/19 04:37:53;;;;;;;;;;;6.40;16.50;;;;;;5113018;28;19934;-75
2022/03/19 04:40:19;;;;;;;;;;;6.40;16.20;;;;;;5112083;28;20359;-75
2022/03/19 04:42:44;;;;;;;;;;;6.30;16.30;;;;;;5113050;28;19930;-75
2022/03/19 04:45:10;;;;;;;;;;;;;;;;;;5112381;28;19965;-74
2022/03/19 04:47:36;;;;;;;;;;;6.30;17.10;;;;;;5112638;28;19957;-76
2022/03/19 04:50:04;;;;;;;;;;;6.20;18.00;;;;;;5112990;28;19958;-75
2022/03/19 04:52:30;;;;;;;;;;;6.20;18.40;;;;;;5112077;28;20189;-75
2022/03/19 04:55:00;;;;;;;;;;;6.20;19.00;;;;;;5112931;28;19908;-76
2022/03/19 04:57:26;;;;;;;;;;;6.20;19.00;;;;;;5112579;28;20322;-76
2022/03/19 04:59:52;;;;;;;;;;;6.10;18.20;;;;;;5113006;28;19911;-75
2022/03/19 05:02:17;;;;;;;;;;;6.10;19.80;;;;;;5112054;28;19907;-75
2022/03/19 05:04:43;;;;;;;;;;;6.00;21.60;;;;;;5112777;28;19908;-75
2022/03/19 05:07:08;;;;;;;;;;;6.10;22.40;;;;;;5094382;28;19924;-75
2022/03/19 05:12:28;;;;;;;;;;;6.10;21.90;;;;;;5112248;28;19946;-75
2022/03/19 05:14:53;;;;;;;;;;;6.00;23.20;;;;;;5112694;28;19908;-76
2022/03/19 05:17:19;;;;;;;;;;;;;;;;;;5111902;28;19919;-75
2022/03/19 05:19:44;;;;;;;;;;;5.80;24.20;;;;;;5094127;28;19908;-76
2022/03/19 05:22:10;;;;;;;;;;;;;;;;;;5112463;28;19999;-73
2022/03/19 05:24:36;;;;;;;;;;;5.60;24.40;;;;;;5094116;28;19908;-75
2022/03/19 05:27:01;;;;;;;;;;;5.80;26.20;;;;;;5112561;28;19931;-75
2022/03/19 05:29:27;;;;;;;;;;;5.80;26.90;;;;;;5093582;28;19908;-75
2022/03/19 05:31:53;;;;;;;;;;;;;;;;;;5112478;28;19908;-75
2022/03/19 05:34:31;;;;;;;;;;;6.10;26.80;;;;;;5111657;28;19965;-75
2022/03/19 05:36:57;;;;;;;;;;;6.10;26.20;;;;;;5112862;28;20045;-75
2022/03/19 05:39:23;;;;;;;;;;;;;;;;;;5111590;28;19912;-75
2022/03/19 05:41:49;;;;;;;;;;;6.00;26.70;;;;;;5112445;28;20253;-75
2022/03/19 05:44:14;;;;;;;;;;;;;;;;;;5111982;28;19933;-73
2022/03/19 05:46:40;;;;;;;;;;;5.80;28.20;;;;;;5112421;28;20351;-75
2022/03/19 05:49:06;;;;;;;;;;;5.70;29.50;;;;;;5112231;28;19945;-77
2022/03/19 05:51:31;;;;;;;;;;;5.80;30.40;;;;;;5111559;28;19915;-77
2022/03/19 05:53:57;;;;;;;;;;;5.90;31.00;;;;;;5097628;28;19919;-77
2022/03/19 05:56:24;;;;;;;;;;;5.90;31.10;;;;;;5115429;28;19911;-76
2022/03/19 05:58:50;;;;;;;;;;;;;;;;;;5116174;28;19915;-77
2022/03/19 06:01:16;;;;;;;;;;;;;;;;;;5115503;28;19912;-75
2022/03/19 06:03:41;;;;;;;;;;;6.10;30.90;;;;;;5117108;28;20352;-77
2022/03/19 06:06:07;;;;;;;;;;;6.10;31.00;;;;;;5115802;28;19924;-77
2022/03/19 06:08:32;;;;;;;;;;;6.20;30.60;;;;;;5115026;28;19927;-77
2022/03/19 06:10:58;;;;;;;;;;;6.20;30.40;;;;;;5093853;28;19997;-77
2022/03/19 06:13:24;;;;;;;;;;;6.30;29.80;;;;;;5094903;28;19996;-77
2022/03/19 06:15:50;;;;;;;;;;;;;;;;;;5095377;28;19916;-77
2022/03/19 06:18:17;;;;;;;;;;;;;;;;;;5094789;28;19908;-75
2022/03/19 06:20:43;;;;;;;;;;;6.40;29.80;;;;;;5096387;28;19916;-77
2022/03/19 06:23:08;;;;;;;;;;;6.40;29.10;;;;;;5095578;28;19908;-76
2022/03/19 06:25:35;;;;;;;;;;;6.50;29.10;;;;;;5094728;28;20165;-77
2022/03/19 06:28:01;;;;;;;;;;;6.50;28.60;;;;;;5095223;28;19915;-76
2022/03/19 06:30:26;;;;;;;;;;;6.60;28.90;;;;;;5095480;28;19987;-76
2022/03/19 06:32:52;;;;;;;;;;;6.60;28.60;;;;;;5095155;28;20004;-76
2022/03/19 06:37:19;;;;;;;;;;;;;;;;;;5094540;28;19912;-75
2022/03/19 06:38:03;;;;;;;;;;;6.70;28.40;;;;;;5096807;28;19974;-77
2022/03/19 06:40:29;;;;;;;;;;;6.90;28.00;;;;;;5114721;28;19908;-77
2022/03/19 06:42:54;;;;;;;;;;;6.80;26.50;;;;;;5115333;28;20332;-77
2022/03/19 06:45:20;;;;;;;;;;;6.90;26.50;;;;;;5114374;28;19908;-76
2022/03/19 06:47:46;;;;;;;;;;;6.90;26.20;;;;;;5115227;28;19907;-77
2022/03/19 06:50:12;;;;;;;;;;;;;;;;;;5079373;28;20311;-78
2022/03/19 06:52:37;;;;;;;;;;;7.00;25.80;;;;;;5092685;28;20362;-74
2022/03/19 06:55:03;;;;;;;;;;;7.10;25.60;;;;;;5094539;28;19961;-73
2022/03/19 06:57:29;;;;;;;;;;;7.30;26.40;;;;;;5093776;28;20396;-74
2022/03/19 06:59:54;;;;;;;;;;;7.60;27.00;;;;;;5094541;28;19955;-73
2022/03/19 07:02:20;;;;;;;;;;;;;;;;;;5104791;28;19908;-72
2022/03/19 07:04:46;;;;;;;;;;;7.70;23.00;;;;;;5114866;28;19915;-72
2022/03/19 07:07:11;;;;;;;;;;;8.10;26.30;;;;;;5114642;28;20397;-71
2022/03/19 07:09:37;;;;;;;;;;;8.00;21.20;;;;;;5098941;28;19968;-72
2022/03/19 07:12:04;;;;;;;;;;;7.80;22.20;;;;;;5094322;28;19909;-71
2022/03/19 07:14:29;;;;;;;;;;;7.90;24.70;;;;;;5088677;28;19914;-71
2022/03/19 07:16:56;;;;;;;;;;;7.80;20.90;;;;;;5090577;28;20317;-68
2022/03/19 07:19:21;;;;;;;;;;;7.90;20.50;;;;;;5092096;28;19915;-72
2022/03/19 07:21:47;;;;;;;;;;;7.90;19.70;;;;;;5092698;28;19916;-76
2022/03/19 07:24:12;;;;;;;;;;;7.90;17.70;;;;;;5090053;28;19995;-74
2022/03/19 07:26:38;;;;;;;;;;;8.20;20.90;;;;;;5073726;28;19904;-71
2022/03/19 07:29:03;;;;;;;;;;;8.00;18.50;;;;;;5092677;28;19961;-72
2022/03/19 07:31:29;;;;;;;;;;;8.20;20.90;;;;;;5091687;28;19970;-69
2022/03/19 07:33:54;;;;;;;;;;;8.30;19.70;;;;;;5090923;28;19959;-69
2022/03/19 07:36:20;;;;;;;;;;;;;;;;;;5087075;28;19923;-70
2022/03/19 07:38:46;;;;;;;;;;;;;;;;;;5092369;28;19920;-73
2022/03/19 07:43:56;;;;;;;;;;;;;;;;;;5089698;28;19970;-70
2022/03/19 07:46:22;;;;;;;;;;;8.40;15.60;;;;;;5091556;28;19912;-68
2022/03/19 07:48:48;;;;;;;;;;;;;;;;;;5092018;28;19912;-71
2022/03/19 07:51:14;;;;;;;;;;;8.30;11.50;;;;;;5092259;28;19909;-72
2022/03/19 07:53:40;;;;;;;;;;;;;;;;;;5091631;28;20497;-71
2022/03/19 07:56:06;;;;;;;;;;;;;;;;;;5088774;28;20404;-72
2022/03/19 07:58:32;;;;;;;;;;;;;;;;;;5088182;28;19916;-72
2022/03/19 08:00:58;;;;;;;;;;;;;;;;;;5088655;28;20365;-73
2022/03/19 08:03:24;;;;;;;;;;;;;;;;;;5088130;28;20012;-72
2022/03/19 08:05:50;;;;;;;;;;;;;;;;;;5077576;28;19980;-72
2022/03/19 08:08:16;;;;;;;;;;;;;;;;;;5069733;28;19912;-72
2022/03/19 08:10:41;;;;;;;;;;;8.90;5.20;;;;;;5067683;28;19908;-72
2022/03/19 08:13:07;;;;;;;;;;;;;;;;;;5068351;28;19916;-73
2022/03/19 08:15:33;;;;;;;;;;;;;;;;;;5067278;28;19916;-73
2022/03/19 08:17:59;;;;;;;;;;;;;;;;;;5068819;28;19912;-72
2022/03/19 08:20:25;;;;;;;;;;;9.40;6.30;;;;;;5067379;28;19960;-72
2022/03/19 08:22:51;;;;;;;;;;;;;;;;;;5068793;28;19930;-71
2022/03/19 08:25:17;;;;;;;;;;;;;;;;;;5068223;28;19916;-77
2022/03/19 08:27:42;;;;;;;;;;;10.00;4.30;;;;;;5067283;28;19918;-71
2022/03/19 08:30:08;;;;;;;;;;;;;;;;;;5068216;28;19958;-71
2022/03/19 08:32:34;;;;;;;;;;;10.80;1.00;;;;;;5066883;28;19909;-80
2022/03/19 08:35:00;;;;;;;;;;;;;;;;;;5067963;28;20308;-75
2022/03/19 08:37:26;;;;;;;;;;;;;;;;;;5067203;28;19920;-66
2022/03/19 08:42:37;;;;;;;;;;;;;;;;;;5067979;28;20230;-71
2022/03/19 08:45:03;;;;;;;;;;;;;;;;;;5071085;28;20360;-73
2022/03/19 08:47:29;;;;;;;;;;;11.60;1.00;;;;;;5070286;28;20281;-71
2022/03/19 08:49:55;;;;;;;;;;;11.00;1.00;;;;;;5071157;28;19969;-70
2022/03/19 08:52:21;;;;;;;;;;;;;;;;;;5052331;28;20361;-78
2022/03/19 08:54:46;;;;;;;;;;;10.50;1.00;;;;;;5069915;28;19912;-70
2022/03/19 08:57:12;;;;;;;;;;;10.80;1.00;;;;;;5069823;28;19918;-68
2022/03/19 08:59:38;;;;;;;;;;;10.90;1.00;;;;;;5066729;28;19983;-67
2022/03/19 09:02:03;;;;;;;;;;;11.10;1.00;;;;;;5070858;28;20268;-67
2022/03/19 09:04:29;;;;;;;;;;;11.40;1.00;;;;;;5071485;28;20417;-67
2022/03/19 09:06:55;;;;;;;;;;;10.50;1.00;;;;;;5088278;28;19920;-74
2022/03/19 09:09:21;;;;;;;;;;;;;;;;;;5104157;28;19912;-71
2022/03/19 09:11:48;;;;;;;;;;;10.90;1.00;;;;;;5112805;28;19907;-74
2022/03/19 09:14:14;;;;;;;;;;;;;;;;;;5108750;28;19918;-72
2022/03/19 09:16:40;;;;;;;;;;;;;;;;;;5108629;28;20030;-74
2022/03/19 09:19:06;;;;;;;;;;;;;;;;;;5096988;28;19923;-70
2022/03/19 09:21:32;;;;;;;;;;;;;;;;;;5082819;28;19931;-71
2022/03/19 09:23:58;;;;;;;;;;;;;;;;;;5088647;28;20320;-70
2022/03/19 09:26:24;;;;;;;;;;;;;;;;;;5087738;28;19919;-70
2022/03/19 09:28:50;;;;;;;;;;;;;;;;;;5092349;28;19912;-71
2022/03/19 09:31:16;;;;;;;;;;;;;;;;;;5090519;28;19912;-71
2022/03/19 09:33:42;;;;;;;;;;;;;;;;;;5070174;28;20437;-70
2022/03/19 09:36:08;;;;;;;;;;;;;;;;;;5103353;28;19927;-65
2022/03/19 09:38:34;;;;;;;;;;;;;;;;;;5098881;28;19927;-72
2022/03/19 09:41:00;;;;;;;;;;;;;;;;;;5083532;28;20769;-75
2022/03/19 09:43:26;;;;;;;;;;;10.70;1.00;;;;;;5091977;28;19908;-71
2022/03/19 09:45:52;;;;;;;;;;;;;;;;;;5092662;28;19908;-70
2022/03/19 09:48:18;;;;;;;;;;;10.80;1.00;;;;;;5081773;28;19923;-70
2022/03/19 09:50:44;;;;;;;;;;;10.90;1.00;;;;;;5071157;28;20467;-70
2022/03/19 09:53:10;;;;;;;;;;;;;;;;;;5072375;28;19961;-71
2022/03/19 09:55:36;;;;;;;;;;;;;;;;;;5076089;28;19947;-71
2022/03/19 09:58:03;;;;;;;;;;;;;;;;;;5090088;28;20008;-75
2022/03/19 10:00:29;;;;;;;;;;;;;;;;;;5090057;28;19916;-72
2022/03/19 10:02:55;;;;;;;;;;;;;;;;;;5084456;28;19920;-75
2022/03/19 10:10:50;;;;;;;;;;;;;;;;;;5075039;28;20057;-72
2022/03/19 10:13:15;;;;;;;;;;;;;;;;;;5088618;28;19939;-72
2022/03/19 10:15:41;;;;;;;;;;;;;;;;;;5104199;28;19923;-72
2022/03/19 10:18:07;;;;;;;;;;;;;;;;;;5108843;28;19920;-72
2022/03/19 10:20:34;;;;;;;;;;;11.70;1.00;;;;;;5114945;28;19912;-72
2022/03/19 10:23:00;;;;;;;;;;;11.40;1.00;;;;;;5097462;28;19908;-72
2022/03/19 10:25:25;;;;;;;;;;;11.80;1.00;;;;;;5104358;28;19919;-72
2022/03/19 10:27:51;;;;;;;;;;;;;;;;;;5095136;28;20281;-72
2022/03/19 10:30:20;;;;;;;;;;;;;;;;;;5094984;28;19931;-73
2022/03/19 10:32:52;;;;;;;;;;;11.80;1.00;;;;;;5094285;28;19916;-72
2022/03/19 10:35:18;;;;;;;;;;;;;;;;;;5094883;28;19923;-72
2022/03/19 10:37:44;;;;;;;;;;;;;;;;;;5075652;28;19996;-72
2022/03/19 10:40:09;;;;;;;;;;;11.70;1.00;;;;;;5094829;28;19912;-72
2022/03/19 10:42:35;;;;;;;;;;;;;;;;;;5094129;28;19915;-72
2022/03/19 10:45:01;;;;;;;;;;;12.10;1.00;;;;;;5095143;28;20416;-72
2022/03/19 10:47:26;;;;;;;;;;;12.10;1.00;;;;;;5094065;28;19973;-72
2022/03/19 10:49:52;;;;;;;;;;;;;;;;;;5094849;28;19908;-72
2022/03/19 10:52:18;;;;;;;;;;;12.20;1.00;;;;;;5077167;28;19908;-73
2022/03/19 10:54:44;;;;;;;;;;;12.10;1.00;;;;;;5094125;28;19904;-72
2022/03/19 10:57:10;;;;;;;;;;;12.50;1.00;;;;;;5094600;28;19920;-72
2022/03/19 10:59:35;;;;;;;;;;;;;;;;;;5094122;28;19908;-72
2022/03/19 11:02:01;;;;;;;;;;;12.60;1.00;;;;;;5094603;28;19908;-72
2022/03/19 11:04:27;;;;;;;;;;;;;;;;;;5093721;28;19912;-73
2022/03/19 11:06:54;;;;;;;;;;;12.60;1.00;;;;;;5077142;28;19928;-72
2022/03/19 11:09:22;;;;;;;;;;;12.90;1.00;;;;;;5074086;28;20361;-72
2022/03/19 11:11:49;;;;;;;;;;;12.90;1.00;;;;;;5073498;28;20369;-73
2022/03/19 11:14:23;;;;;;;;;;;;;;;;;;5056093;28;19908;-73
2022/03/19 11:19:44;;;;;;;;;;;13.10;1.00;;;;;;5069591;28;19959;-73
2022/03/19 11:22:09;;;;;;;;;;;13.10;1.00;;;;;;5055204;28;19912;-74
2022/03/19 11:24:55;;;;;;;;;;;13.30;1.00;;;;;;5073373;28;20320;-73
2022/03/19 11:27:21;;;;;;;;;;;13.50;1.00;;;;;;5073279;28;19995;-73
2022/03/19 11:29:47;;;;;;;;;;;;;;;;;;5073075;28;19904;-74
2022/03/19 11:32:23;;;;;;;;;;;13.30;1.00;;;;;;5073855;28;19948;-73
2022/03/19 11:34:49;;;;;;;;;;;13.30;1.00;;;;;;5073187;28;20316;-73
2022/03/19 11:37:15;;;;;;;;;;;13.20;1.00;;;;;;5073545;28;19920;-73
2022/03/19 11:39:59;;;;;;;;;;;13.40;1.00;;;;;;5072649;28;19908;-74
2022/03/19 11:42:24;;;;;;;;;;;;;;;;;;5073528;28;19908;-74
2022/03/19 11:44:50;;;;;;;;;;;13.60;1.00;;;;;;5072961;28;19955;-74
2022/03/19 11:47:16;;;;;;;;;;;13.70;1.00;;;;;;5073487;28;20319;-74
2022/03/19 11:49:55;;;;;;;;;;;13.50;1.00;;;;;;5071900;28;19912;-74
2022/03/19 11:52:26;;;;;;;;;;;13.70;1.00;;;;;;5073554;28;19958;-74
2022/03/19 11:54:54;;;;;;;;;;;;;;;;;;5072934;28;19915;-74
2022/03/19 11:57:20;;;;;;;;;;;;;;;;;;5073207;28;19988;-73
2022/03/19 11:59:46;;;;;;;;;;;13.50;1.00;;;;;;5072656;28;19919;-73
2022/03/19 12:02:14;;;;;;;;;;;;;;;;;;5073194;28;19910;-74
2022/03/19 12:04:39;;;;;;;;;;;14.10;1.00;;;;;;5072730;28;19932;-72
2022/03/19 12:07:05;;;;;;;;;;;14.10;1.00;;;;;;5072788;28;20377;-73
2022/03/19 12:09:32;;;;;;;;;;;;;;;;;;5072336;28;19919;-72
2022/03/19 12:12:08;;;;;;;;;;;14.30;1.00;;;;;;5072931;28;20391;-72
2022/03/19 12:14:34;;;;;;;;;;;14.50;1.00;;;;;;5072145;28;19916;-73
2022/03/19 12:17:00;;;;;;;;;;;;;;;;;;5072994;28;19961;-73
2022/03/19 12:19:46;;;;;;;;;;;14.20;1.00;;;;;;5072799;28;19909;-72
2022/03/19 12:22:11;;;;;;;;;;;14.40;1.00;;;;;;5072013;28;19958;-73
2022/03/19 12:24:40;;;;;;;;;;;14.50;1.00;;;;;;5072204;28;19991;-72
2022/03/19 12:27:06;;;;;;;;;;;14.40;1.00;;;;;;5072565;28;20037;-72
2022/03/19 12:29:32;;;;;;;;;;;;;;;;;;5071975;28;19950;-72
2022/03/19 12:31:58;;;;;;;;;;;14.20;1.00;;;;;;5072618;28;19962;-73
2022/03/19 12:34:25;;;;;;;;;;;14.50;1.00;;;;;;5072631;28;19908;-73
2022/03/19 12:36:52;;;;;;;;;;;14.90;1.00;;;;;;5072111;28;19999;-72
2022/03/19 12:39:18;;;;;;;;;;;;;;;;;;5084389;28;19920;-72
2022/03/19 12:41:44;;;;;;;;;;;14.50;1.00;;;;;;5091931;28;19908;-72
2022/03/19 12:44:18;;;;;;;;;;;14.30;1.00;;;;;;5092746;28;19908;-72
2022/03/19 12:46:44;;;;;;;;;;;14.20;1.00;;;;;;5092153;28;19908;-72
2022/03/19 12:49:10;;;;;;;;;;;14.30;1.00;;;;;;5074561;28;19908;-73
2022/03/19 12:51:42;;;;;;;;;;;14.40;1.00;;;;;;5092043;28;19908;-72
2022/03/19 12:54:08;;;;;;;;;;;;;;;;;;5092894;28;19912;-73
2022/03/19 12:56:35;;;;;;;;;;;14.80;1.00;;;;;;5091825;28;19934;-72
2022/03/19 12:59:01;;;;;;;;;;;15.10;1.00;;;;;;5092836;28;19908;-73
2022/03/19 13:01:27;;;;;;;;;;;14.70;1.00;;;;;;5074232;28;19909;-74
2022/03/19 13:03:53;;;;;;;;;;;;;;;;;;5091737;28;19905;-74
2022/03/19 13:06:35;;;;;;;;;;;14.90;1.00;;;;;;5104617;28;20291;-72
2022/03/19 13:09:00;;;;;;;;;;;15.00;1.00;;;;;;5112721;28;19962;-72
2022/03/19 13:11:26;;;;;;;;;;;;;;;;;;5112735;28;20279;-72
2022/03/19 13:13:52;;;;;;;;;;;15.00;1.00;;;;;;5111910;28;20160;-72
2022/03/19 13:16:18;;;;;;;;;;;;;;;;;;5112499;28;20486;-72
2022/03/19 13:18:47;;;;;;;;;;;;;;;;;;5111881;28;19914;-73
2022/03/19 13:21:13;;;;;;;;;;;15.00;1.00;;;;;;5112680;28;19907;-72
2022/03/19 13:23:40;;;;;;;;;;;15.40;1.00;;;;;;5111842;28;19919;-72
2022/03/19 13:26:06;;;;;;;;;;;15.30;1.00;;;;;;5112668;28;20343;-72
2022/03/19 13:28:32;;;;;;;;;;;;;;;;;;5112261;28;19915;-72
2022/03/19 13:30:58;;;;;;;;;;;14.80;1.00;;;;;;5112487;28;19957;-72
2022/03/19 13:33:26;;;;;;;;;;;14.70;1.00;;;;;;5112763;28;20279;-72
2022/03/19 13:35:52;;;;;;;;;;;14.80;1.00;;;;;;5111787;28;19951;-72
2022/03/19 13:38:18;;;;;;;;;;;;;;;;;;5112341;28;20331;-72
2022/03/19 13:40:44;;;;;;;;;;;14.50;1.00;;;;;;5111664;28;19912;-72
2022/03/19 13:43:10;;;;;;;;;;;14.50;1.00;;;;;;5112717;28;20310;-72
2022/03/19 13:45:36;;;;;;;;;;;;;;;;;;5111742;28;19912;-71
2022/03/19 13:48:04;;;;;;;;;;;14.30;1.00;;;;;;5112428;28;20325;-71
2022/03/19 13:50:30;;;;;;;;;;;;;;;;;;5112553;28;19939;-71
2022/03/19 13:52:57;;;;;;;;;;;14.50;1.00;;;;;;5111491;28;20717;-72
2022/03/19 13:55:23;;;;;;;;;;;14.50;1.00;;;;;;5112246;28;20011;-71
2022/03/19 13:57:49;;;;;;;;;;;;;;;;;;5112356;28;19994;-71
2022/03/19 14:00:18;;;;;;;;;;;14.40;1.00;;;;;;5112143;28;19908;-71
2022/03/19 14:02:54;;;;;;;;;;;14.20;1.00;;;;;;5111222;28;19908;-71
2022/03/19 14:05:20;;;;;;;;;;;;;;;;;;5112136;28;19968;-71
2022/03/19 14:07:45;;;;;;;;;;;14.50;1.00;;;;;;5111497;28;20333;-71
2022/03/19 14:10:11;;;;;;;;;;;14.20;1.00;;;;;;5093829;28;19908;-71
2022/03/19 14:12:37;;;;;;;;;;;;;;;;;;5111797;28;19915;-72
2022/03/19 14:15:04;;;;;;;;;;;14.00;1.00;;;;;;5115989;28;19965;-71
2022/03/19 14:17:46;;;;;;;;;;;14.20;1.00;;;;;;5115980;28;19976;-71
2022/03/19 14:20:12;;;;;;;;;;;14.30;1.00;;;;;;5116020;28;19908;-71
2022/03/19 14:22:38;;;;;;;;;;;;;;;;;;5096927;28;19912;-72
2022/03/19 14:25:04;;;;;;;;;;;14.40;1.00;;;;;;5115630;28;19938;-71
2022/03/19 14:27:30;;;;;;;;;;;15.00;1.00;;;;;;5115574;28;19908;-71
2022/03/19 14:29:56;;;;;;;;;;;15.10;1.00;;;;;;5114780;28;19959;-71
2022/03/19 14:32:22;;;;;;;;;;;15.10;1.00;;;;;;5115382;28;19998;-71
2022/03/19 14:34:47;;;;;;;;;;;15.00;1.00;;;;;;5114591;28;19961;-71
2022/03/19 14:37:13;;;;;;;;;;;14.90;1.00;;;;;;5115433;28;19920;-71
2022/03/19 14:39:38;;;;;;;;;;;;;;;;;;5099904;28;19908;-72
2022/03/19 14:42:04;;;;;;;;;;;;;;;;;;5094920;28;19912;-71
2022/03/19 14:44:30;;;;;;;;;;;;;;;;;;5094923;28;19927;-71
2022/03/19 14:46:56;;;;;;;;;;;15.00;1.00;;;;;;5094343;28;20021;-72
2022/03/19 14:49:21;;;;;;;;;;;15.20;1.00;;;;;;5094867;28;19909;-71
2022/03/19 14:51:47;;;;;;;;;;;;;;;;;;5094077;28;19912;-71
2022/03/19 14:54:13;;;;;;;;;;;15.30;1.00;;;;;;5094771;28;19915;-71
2022/03/19 14:56:39;;;;;;;;;;;;;;;;;;5094242;28;19955;-71
2022/03/19 14:59:05;;;;;;;;;;;14.80;1.00;;;;;;5094446;28;19980;-71
2022/03/19 15:01:31;;;;;;;;;;;15.10;1.00;;;;;;5094556;28;19922;-71
2022/03/19 15:03:56;;;;;;;;;;;14.70;1.00;;;;;;5094044;28;20026;-71
2022/03/19 15:06:25;;;;;;;;;;;15.20;1.00;;;;;;5076103;28;20015;-71
2022/03/19 15:08:52;;;;;;;;;;;15.70;1.00;;;;;;5093528;28;19913;-72
2022/03/19 15:11:18;;;;;;;;;;;;;;;;;;5094614;28;19920;-71
2022/03/19 15:13:45;;;;;;;;;;;15.40;1.00;;;;;;5093572;28;20265;-72
2022/03/19 15:16:11;;;;;;;;;;;;;;;;;;5094427;28;19912;-72
2022/03/19 15:18:36;;;;;;;;;;;15.30;1.00;;;;;;5076154;28;19916;-71
2022/03/19 15:21:03;;;;;;;;;;;;;;;;;;5093499;28;19908;-71
2022/03/19 15:23:29;;;;;;;;;;;14.80;1.00;;;;;;5094413;28;19912;-71
2022/03/19 15:25:55;;;;;;;;;;;15.60;1.00;;;;;;5093267;28;19930;-72
2022/03/19 15:28:21;;;;;;;;;;;;;;;;;;5094162;28;19931;-71
2022/03/19 15:30:47;;;;;;;;;;;15.20;1.00;;;;;;5093219;28;19908;-72
2022/03/19 15:33:12;;;;;;;;;;;15.00;1.00;;;;;;5094010;28;19915;-72
2022/03/19 15:35:38;;;;;;;;;;;;;;;;;;5093799;28;19919;-71
2022/03/19 15:38:04;;;;;;;;;;;14.60;1.00;;;;;;5093209;28;20274;-72
2022/03/19 15:40:31;;;;;;;;;;;15.00;1.00;;;;;;5093828;28;19959;-72
2022/03/19 15:43:03;;;;;;;;;;;15.10;1.00;;;;;;5093271;28;19953;-72
2022/03/19 15:45:29;;;;;;;;;;;14.70;1.00;;;;;;5093831;28;19941;-72
2022/03/19 15:47:54;;;;;;;;;;;14.70;1.00;;;;;;5092967;28;19999;-71
2022/03/19 15:50:21;;;;;;;;;;;14.80;1.00;;;;;;5093875;28;19915;-71
2022/03/19 15:52:47;;;;;;;;;;;;;;;;;;5092898;28;19908;-72
2022/03/19 15:55:12;;;;;;;;;;;14.50;1.00;;;;;;5093755;28;19931;-72
2022/03/19 15:57:38;;;;;;;;;;;14.60;1.00;;;;;;5093532;28;19912;-71
2022/03/19 16:00:06;;;;;;;;;;;14.40;1.00;;;;;;5092717;28;19923;-72
2022/03/19 16:02:32;;;;;;;;;;;;;;;;;;5093376;28;19908;-72
2022/03/19 16:04:57;;;;;;;;;;;14.90;1.00;;;;;;5091411;28;20009;-72
2022/03/19 16:07:23;;;;;;;;;;;;;;;;;;5055240;28;20369;-72
2022/03/19 16:09:51;;;;;;;;;;;;;;;;;;5088163;28;19908;-72
2022/03/19 16:12:17;;;;;;;;;;;14.10;1.00;;;;;;5093171;28;20357;-71
2022/03/19 16:14:45;;;;;;;;;;;;;;;;;;5074779;28;19908;-72
2022/03/19 16:17:11;;;;;;;;;;;13.50;1.00;;;;;;5074968;28;20272;-71
2022/03/19 16:19:36;;;;;;;;;;;13.90;1.00;;;;;;5093197;28;19908;-71
2022/03/19 16:22:02;;;;;;;;;;;13.40;1.00;;;;;;5092326;28;19919;-71
2022/03/19 16:24:30;;;;;;;;;;;;;;;;;;5093072;28;19912;-71
2022/03/19 16:26:56;;;;;;;;;;;;;;;;;;5092171;28;19959;-71
2022/03/19 16:29:22;;;;;;;;;;;;;;;;;;5092866;28;19955;-72
2022/03/19 16:31:48;;;;;;;;;;;;;;;;;;5091999;28;19912;-72
2022/03/19 16:34:14;;;;;;;;;;;13.70;1.00;;;;;;5093316;28;19908;-72